MSC Mars — D5KN4 — position and weather

sailwx.info

Track history (hours):
 
Tides and Currents Weather Stations Pressure Air Temp Water Temp Dewpoint Dewpoint Depression Visibility Wind Speed Wind Dir Waves Ship Positions

MSC Mars

Last reported at 2018-Feb-15 23:20 UTC. Time now 2018-Feb-19 22:14 UTC.
Position N 01°23' E 103°16'.

Length 324 m; draft 14.6 m.

Type: Ship. MMSI: 636017357.

Date/timePositionNaut miles runAvg speedWind from/ knotsBaromVisibWave heightAir tempDewpointWater temp
2018-Feb-15 23:20N 01°23' E 103°16'719.2
2018-Feb-15 22:59N 01°18' E 103°20'919.0
2018-Feb-15 22:30N 01°13' E 103°28'1017.4
2018-Feb-15 21:56N 01°11' E 103°38'614.7
2018-Feb-15 21:30N 01°08' E 103°43'612.9
2018-Feb-15 21:00N 01°12' E 103°49'4 8.1
2018-Feb-15 20:30N 01°15' E 103°47'2 3.3
2018-Feb-15 19:57N 01°16' E 103°46'0 0.0
2018-Feb-15 19:30N 01°16' E 103°46'0 0.0
2018-Feb-15 18:57N 01°16' E 103°46'0 0.0
2018-Feb-15 18:24N 01°16' E 103°46'0 0.0
2018-Feb-15 17:57N 01°16' E 103°46'0 0.0
2018-Feb-15 17:27N 01°16' E 103°46'0 0.0
2018-Feb-15 17:00N 01°16' E 103°46'0 0.0
2018-Feb-15 16:27N 01°16' E 103°46'0 0.0
2018-Feb-15 15:57N 01°16' E 103°46'0 0.0
2018-Feb-15 15:24N 01°16' E 103°46'0 0.0
2018-Feb-15 14:57N 01°16' E 103°46'0 0.0
2018-Feb-15 14:30N 01°16' E 103°46'0 0.0
2018-Feb-15 13:57N 01°16' E 103°46'0 0.0
2018-Feb-15 13:27N 01°16' E 103°46'0 0.0
2018-Feb-15 12:57N 01°16' E 103°46'0 0.0
2018-Feb-15 12:27N 01°16' E 103°46'0 0.0
2018-Feb-15 11:57N 01°16' E 103°46'0 0.0
2018-Feb-15 11:30N 01°16' E 103°46'0 0.0
2018-Feb-15 10:57N 01°16' E 103°46'0 0.0
2018-Feb-15 10:27N 01°16' E 103°46'0 0.0
2018-Feb-15 10:00N 01°16' E 103°46'0 0.0
2018-Feb-15 09:30N 01°16' E 103°46'0 0.0
2018-Feb-15 08:57N 01°16' E 103°46'0 0.0
2018-Feb-15 08:30N 01°16' E 103°46'0 0.0
2018-Feb-15 08:00N 01°16' E 103°46'0 0.0
2018-Feb-15 07:30N 01°16' E 103°46'0 0.0
2018-Feb-15 06:57N 01°16' E 103°46'0 0.0
2018-Feb-15 06:30N 01°16' E 103°46'0 0.1
2018-Feb-15 05:57N 01°16' E 103°46'0 0.0
2018-Feb-15 05:30N 01°16' E 103°46'0 0.1
2018-Feb-15 04:57N 01°16' E 103°46'0 0.0
2018-Feb-15 04:27N 01°16' E 103°46'0 0.0
2018-Feb-15 03:57N 01°16' E 103°46'0 0.0
2018-Feb-15 03:27N 01°16' E 103°46'0 0.0
2018-Feb-15 02:57N 01°16' E 103°46'0 0.0
2018-Feb-15 02:30N 01°16' E 103°46'0 0.0
2018-Feb-15 01:57N 01°16' E 103°46'0 0.0
2018-Feb-15 01:30N 01°16' E 103°46'0 0.0
2018-Feb-15 00:57N 01°16' E 103°46'0 0.0
2018-Feb-15 00:27N 01°16' E 103°46'0 0.0
2018-Feb-15 00:00N 01°16' E 103°46'0 0.0
2018-Feb-14 23:27N 01°16' E 103°46'0 0.0
2018-Feb-14 22:57N 01°16' E 103°46'0 0.0
2018-Feb-14 22:30N 01°16' E 103°46'0 0.0
2018-Feb-14 21:57N 01°16' E 103°46'0 0.0
2018-Feb-14 21:24N 01°16' E 103°46'0 0.0
2018-Feb-14 20:57N 01°16' E 103°46'0 0.0
2018-Feb-14 20:30N 01°16' E 103°46'0 0.0
2018-Feb-14 19:57N 01°16' E 103°46'0 0.0
2018-Feb-14 19:30N 01°16' E 103°46'0 0.0
2018-Feb-14 18:57N 01°16' E 103°46'0 0.0
2018-Feb-14 18:27N 01°16' E 103°46'0 0.0
2018-Feb-14 17:54N 01°16' E 103°46'0 0.0
2018-Feb-14 17:30N 01°16' E 103°46'0 0.2
2018-Feb-14 17:00N 01°16' E 103°46'0 0.3
2018-Feb-14 16:30N 01°16' E 103°46'1 2.8
2018-Feb-14 15:59N 01°15' E 103°47'4 8.1
2018-Feb-14 15:30N 01°12' E 103°49'5 9.3
2018-Feb-14 15:00N 01°14' E 103°54'3 4.7
2018-Feb-14 14:28N 01°14' E 103°56'3 6.2
2018-Feb-14 14:00N 01°15' E 103°59'3 5.8
2018-Feb-14 13:26N 01°16' E 104°02'3 6.5
2018-Feb-14 12:59N 01°16' E 104°05'3 7.2
2018-Feb-14 12:30N 01°17' E 104°09'4 7.0
2018-Feb-14 11:54N 01°17' E 104°13'  
2018-Feb-10 03:42N 22°22' E 113°55'  
Track history (hours):
 
Tides and Currents Weather Stations Pressure Air Temp Water Temp Dewpoint Dewpoint Depression Visibility Wind Speed Wind Dir Waves Ship Positions

MSC Mars

Last reported at 2018-Feb-15 23:20 UTC. Time now 2018-Feb-19 22:14 UTC.
Position N 01°23' E 103°16'.

Length 324 m; draft 14.6 m.

Type: Ship. MMSI: 636017357.

Date/timePositionNaut miles runAvg speedWind from/ knotsBaromVisibWave heightAir tempDewpointWater temp
2018-Feb-15 23:20N 01°23' E 103°16'719.2
2018-Feb-15 22:59N 01°18' E 103°20'919.0
2018-Feb-15 22:30N 01°13' E 103°28'1017.4
2018-Feb-15 21:56N 01°11' E 103°38'614.7
2018-Feb-15 21:30N 01°08' E 103°43'612.9
2018-Feb-15 21:00N 01°12' E 103°49'4 8.1
2018-Feb-15 20:30N 01°15' E 103°47'2 3.3
2018-Feb-15 19:57N 01°16' E 103°46'0 0.0
2018-Feb-15 19:30N 01°16' E 103°46'0 0.0
2018-Feb-15 18:57N 01°16' E 103°46'0 0.0
2018-Feb-15 18:24N 01°16' E 103°46'0 0.0
2018-Feb-15 17:57N 01°16' E 103°46'0 0.0
2018-Feb-15 17:27N 01°16' E 103°46'0 0.0
2018-Feb-15 17:00N 01°16' E 103°46'0 0.0
2018-Feb-15 16:27N 01°16' E 103°46'0 0.0
2018-Feb-15 15:57N 01°16' E 103°46'0 0.0
2018-Feb-15 15:24N 01°16' E 103°46'0 0.0
2018-Feb-15 14:57N 01°16' E 103°46'0 0.0
2018-Feb-15 14:30N 01°16' E 103°46'0 0.0
2018-Feb-15 13:57N 01°16' E 103°46'0 0.0
2018-Feb-15 13:27N 01°16' E 103°46'0 0.0
2018-Feb-15 12:57N 01°16' E 103°46'0 0.0
2018-Feb-15 12:27N 01°16' E 103°46'0 0.0
2018-Feb-15 11:57N 01°16' E 103°46'0 0.0
2018-Feb-15 11:30N 01°16' E 103°46'0 0.0
2018-Feb-15 10:57N 01°16' E 103°46'0 0.0
2018-Feb-15 10:27N 01°16' E 103°46'0 0.0
2018-Feb-15 10:00N 01°16' E 103°46'0 0.0
2018-Feb-15 09:30N 01°16' E 103°46'0 0.0
2018-Feb-15 08:57N 01°16' E 103°46'0 0.0
2018-Feb-15 08:30N 01°16' E 103°46'0 0.0
2018-Feb-15 08:00N 01°16' E 103°46'0 0.0
2018-Feb-15 07:30N 01°16' E 103°46'0 0.0
2018-Feb-15 06:57N 01°16' E 103°46'0 0.0
2018-Feb-15 06:30N 01°16' E 103°46'0 0.1
2018-Feb-15 05:57N 01°16' E 103°46'0 0.0
2018-Feb-15 05:30N 01°16' E 103°46'0 0.1
2018-Feb-15 04:57N 01°16' E 103°46'0 0.0
2018-Feb-15 04:27N 01°16' E 103°46'0 0.0
2018-Feb-15 03:57N 01°16' E 103°46'0 0.0
2018-Feb-15 03:27N 01°16' E 103°46'0 0.0
2018-Feb-15 02:57N 01°16' E 103°46'0 0.0
2018-Feb-15 02:30N 01°16' E 103°46'0 0.0
2018-Feb-15 01:57N 01°16' E 103°46'0 0.0
2018-Feb-15 01:30N 01°16' E 103°46'0 0.0
2018-Feb-15 00:57N 01°16' E 103°46'0 0.0
2018-Feb-15 00:27N 01°16' E 103°46'0 0.0
2018-Feb-15 00:00N 01°16' E 103°46'0 0.0
2018-Feb-14 23:27N 01°16' E 103°46'0 0.0
2018-Feb-14 22:57N 01°16' E 103°46'0 0.0
2018-Feb-14 22:30N 01°16' E 103°46'0 0.0
2018-Feb-14 21:57N 01°16' E 103°46'0 0.0
2018-Feb-14 21:24N 01°16' E 103°46'0 0.0
2018-Feb-14 20:57N 01°16' E 103°46'0 0.0
2018-Feb-14 20:30N 01°16' E 103°46'0 0.0
2018-Feb-14 19:57N 01°16' E 103°46'0 0.0
2018-Feb-14 19:30N 01°16' E 103°46'0 0.0
2018-Feb-14 18:57N 01°16' E 103°46'0 0.0
2018-Feb-14 18:27N 01°16' E 103°46'0 0.0
2018-Feb-14 17:54N 01°16' E 103°46'0 0.0
2018-Feb-14 17:30N 01°16' E 103°46'0 0.2
2018-Feb-14 17:00N 01°16' E 103°46'0 0.3
2018-Feb-14 16:30N 01°16' E 103°46'1 2.8
2018-Feb-14 15:59N 01°15' E 103°47'4 8.1
2018-Feb-14 15:30N 01°12' E 103°49'5 9.3
2018-Feb-14 15:00N 01°14' E 103°54'3 4.7
2018-Feb-14 14:28N 01°14' E 103°56'3 6.2
2018-Feb-14 14:00N 01°15' E 103°59'3 5.8
2018-Feb-14 13:26N 01°16' E 104°02'3 6.5
2018-Feb-14 12:59N 01°16' E 104°05'3 7.2
2018-Feb-14 12:30N 01°17' E 104°09'4 7.0
2018-Feb-14 11:54N 01°17' E 104°13'  
2018-Feb-10 03:42N 22°22' E 113°55'  

Dump ship's entire track history